Time;durP1;ratioP1;P1;durP2;ratioP2;P2;SDS_P1;SDS_P2;PMS_P1;PMS_P2;Temp;Humidity;BMP_temperature;BMP_pressure;BME280_temperature;BME280_humidity;BME280_pressure;Samples;Min_cycle;Max_cycle;Signal;HPM_P1;HPM_P2
2023/07/29 00:00:10;;;;;;;9.60;8.55;;;;;;;14.88;100.00;100157.66;4936448;29;20554;-62
2023/07/29 00:02:39;;;;;;;14.90;9.60;;;;;;;14.85;100.00;100158.06;4936205;29;20566;-63
2023/07/29 00:05:07;;;;;;;15.70;9.63;;;;;;;14.85;100.00;100152.66;4935940;29;20047;-62
2023/07/29 00:07:34;;;;;;;13.07;9.63;;;;;;;14.83;100.00;100160.94;4935937;29;20055;-63
2023/07/29 00:10:00;;;;;;;12.15;9.25;;;;;;;14.82;100.00;100159.28;4935795;29;20068;-63
2023/07/29 00:12:27;;;;;;;11.60;9.85;;;;;;;14.78;100.00;100155.31;4935638;29;20074;-63
2023/07/29 00:14:53;;;;;;;11.45;9.48;;;;;;;14.79;100.00;100150.75;4935703;29;20500;-63
2023/07/29 00:17:20;;;;;;;16.60;8.93;;;;;;;14.71;100.00;100158.00;4935718;29;20055;-63
2023/07/29 00:19:47;;;;;;;11.32;8.80;;;;;;;14.70;100.00;100156.31;4935586;29;20048;-62
2023/07/29 00:22:13;;;;;;;14.40;10.48;;;;;;;14.70;100.00;100147.34;4935631;29;20397;-61
2023/07/29 00:24:41;;;;;;;11.95;10.32;;;;;;;14.65;100.00;100147.97;4936079;29;20067;-63
2023/07/29 00:27:08;;;;;;;16.48;10.65;;;;;;;14.62;100.00;100140.25;4935109;29;20106;-63
2023/07/29 00:29:34;;;;;;;13.07;10.18;;;;;;;14.61;100.00;100144.00;4935052;29;20069;-63
2023/07/29 00:32:01;;;;;;;14.00;9.80;;;;;;;14.56;100.00;100138.34;4935112;29;20415;-64
2023/07/29 00:34:28;;;;;;;14.85;10.05;;;;;;;14.53;100.00;100146.84;4935171;29;20472;-64
2023/07/29 00:36:55;;;;;;;12.57;11.05;;;;;;;14.55;100.00;100144.78;4935060;29;20112;-64
2023/07/29 00:39:22;;;;;;;15.73;9.65;;;;;;;14.53;100.00;100150.41;4918102;29;20051;-62
2023/07/29 00:41:49;;;;;;;11.88;10.60;;;;;;;14.53;100.00;100141.44;4935420;29;20044;-63
2023/07/29 00:44:16;;;;;;;14.75;9.93;;;;;;;14.54;100.00;100146.66;4935316;29;20047;-63
2023/07/29 00:46:46;;;;;;;13.88;9.85;;;;;;;14.54;100.00;100141.28;4935798;29;20051;-64
2023/07/29 00:49:12;;;;;;;11.23;10.13;;;;;;;14.47;100.00;100148.50;4935172;29;20054;-65
2023/07/29 00:51:39;;;;;;;14.40;10.05;;;;;;;14.45;100.00;100136.22;4935441;29;20048;-63
2023/07/29 00:54:06;;;;;;;12.18;9.77;;;;;;;14.41;100.00;100132.28;4935159;29;20052;-64
2023/07/29 00:56:32;;;;;;;15.00;10.68;;;;;;;14.36;100.00;100134.72;4935111;29;20055;-63
2023/07/29 00:59:02;;;;;;;13.80;9.82;;;;;;;14.37;100.00;100129.13;4934726;29;20051;-63
2023/07/29 01:01:29;;;;;;;11.27;9.75;;;;;;;14.40;100.00;100125.22;4934857;29;20646;-63
2023/07/29 01:03:56;;;;;;;11.73;10.48;;;;;;;14.36;100.00;100130.19;4934830;29;20048;-63
2023/07/29 01:10:09;;;;;;;11.32;9.88;;;;;;;14.27;100.00;100110.59;4934594;29;20153;-63
2023/07/29 01:12:48;;;;;;;12.02;10.75;;;;;;;14.29;100.00;100103.16;4917841;29;20052;-63
2023/07/29 01:15:28;;;;;;;13.25;10.23;;;;;;;14.27;100.00;100104.38;4934715;29;20459;-62
2023/07/29 01:18:06;;;;;;;15.63;10.35;;;;;;;14.25;100.00;100096.50;4934709;29;20056;-63
2023/07/29 01:20:36;;;;;;;15.13;10.27;;;;;;;14.19;100.00;100094.59;4934653;29;20043;-62
2023/07/29 01:23:03;;;;;;;13.25;10.35;;;;;;;14.12;100.00;100096.44;4934668;29;20058;-63
2023/07/29 01:25:29;;;;;;;13.85;10.80;;;;;;;14.11;100.00;100086.66;4934502;29;20044;-62
2023/07/29 01:27:57;;;;;;;13.02;9.63;;;;;;;14.11;100.00;100083.94;4934388;29;20112;-64
2023/07/29 01:30:31;;;;;;;11.75;9.88;;;;;;;14.14;100.00;100085.44;4934350;29;20099;-64
2023/07/29 01:33:20;;;;;;;13.82;11.77;;;;;;;14.14;100.00;100083.56;4917334;29;20464;-63
2023/07/29 01:35:52;;;;;;;11.48;10.27;;;;;;;14.16;100.00;100089.59;4934258;29;20051;-64
2023/07/29 01:38:33;;;;;;;17.65;13.52;;;;;;;14.20;100.00;100098.94;4933743;29;20074;-64
2023/07/29 01:41:06;;;;;;;16.50;12.07;;;;;;;14.19;100.00;100096.47;4934194;29;20051;-64
2023/07/29 01:43:33;;;;;;;16.52;12.40;;;;;;;14.16;100.00;100100.38;4934200;29;20051;-63
2023/07/29 01:46:00;;;;;;;21.58;10.80;;;;;;;14.16;100.00;100103.09;4934109;29;20058;-64
2023/07/29 01:48:30;;;;;;;15.43;12.63;;;;;;;14.14;100.00;100110.53;4933763;29;20047;-63
2023/07/29 01:50:56;;;;;;;17.17;11.73;;;;;;;14.16;100.00;100103.09;4933842;29;20511;-64
2023/07/29 01:53:23;;;;;;;14.70;11.60;;;;;;;14.10;100.00;100105.75;4933995;29;20106;-65
2023/07/29 01:55:50;;;;;;;12.55;11.23;;;;;;;14.11;100.00;100108.22;4934003;29;20471;-63
2023/07/29 01:58:16;;;;;;;18.55;12.43;;;;;;;14.12;100.00;100101.81;4933961;29;20523;-63
2023/07/29 02:00:43;;;;;;;12.05;10.57;;;;;;;14.07;100.00;100098.88;4934118;29;20054;-63
2023/07/29 02:03:09;;;;;;;20.13;11.07;;;;;;;14.06;100.00;100108.84;4933811;29;20056;-63
2023/07/29 02:05:36;;;;;;;12.90;10.95;;;;;;;14.06;100.00;100106.13;4933643;29;20115;-64
2023/07/29 02:08:03;;;;;;;13.50;11.05;;;;;;;14.02;100.00;100106.75;4933808;29;20055;-64
2023/07/29 02:10:29;;;;;;;23.00;10.63;;;;;;;13.96;100.00;100108.34;4933733;29;20071;-64
2023/07/29 02:12:56;;;;;;;12.52;11.23;;;;;;;13.93;100.00;100113.31;4933665;29;20043;-64
2023/07/29 02:15:22;;;;;;;11.95;10.75;;;;;;;13.90;100.00;100108.31;4916571;29;20048;-64
2023/07/29 02:17:50;;;;;;;12.55;11.05;;;;;;;13.94;100.00;100104.19;4933564;29;20056;-63
2023/07/29 02:20:17;;;;;;;12.82;10.18;;;;;;;13.95;100.00;100106.69;4933664;29;20126;-63
2023/07/29 02:22:43;;;;;;;13.60;10.65;;;;;;;13.95;100.00;100113.97;4934087;29;20048;-64
2023/07/29 02:25:10;;;;;;;12.13;10.23;;;;;;;13.93;100.00;100114.13;4933552;29;20481;-63
2023/07/29 02:27:37;;;;;;;18.75;11.02;;;;;;;13.98;100.00;100102.78;4933637;29;20496;-63
2023/07/29 02:30:05;;;;;;;13.95;9.60;;;;;;;13.88;100.00;100113.06;4933378;29;20435;-63
2023/07/29 02:32:31;;;;;;;15.85;10.98;;;;;;;13.87;100.00;100111.38;4933385;29;20048;-63
2023/07/29 02:34:58;;;;;;;15.75;10.82;;;;;;;13.84;100.00;100104.56;4933590;29;20047;-63
2023/07/29 02:37:28;;;;;;;12.52;10.70;;;;;;;13.80;100.00;100100.56;4933266;29;20103;-63
2023/07/29 02:39:54;;;;;;;11.85;10.27;;;;;;;13.77;100.00;100098.28;4933493;29;20463;-63
2023/07/29 02:42:21;;;;;;;12.25;10.55;;;;;;;13.74;100.00;100099.47;4933066;29;20040;-63
2023/07/29 02:44:47;;;;;;;20.02;10.73;;;;;;;13.69;100.00;100096.50;4933308;29;20102;-63
2023/07/29 02:47:14;;;;;;;11.23;10.10;;;;;;;13.66;100.00;100101.47;4933212;29;20071;-61
2023/07/29 02:49:40;;;;;;;14.60;11.18;;;;;;;13.62;100.00;100084.84;4933419;29;20047;-63
2023/07/29 02:52:07;;;;;;;13.02;10.60;;;;;;;13.58;100.00;100088.97;4933250;29;20044;-63
2023/07/29 02:54:34;;;;;;;14.57;10.20;;;;;;;13.61;100.00;100093.13;4933169;29;20396;-64
2023/07/29 02:57:02;;;;;;;12.15;10.00;;;;;;;13.59;100.00;100104.09;4933221;29;20067;-63
2023/07/29 02:59:28;;;;;;;14.40;10.48;;;;;;;13.61;100.00;100098.53;4933120;29;20048;-64
2023/07/29 03:01:56;;;;;;;14.77;9.95;;;;;;;13.54;100.00;100101.16;4932994;29;20499;-64
2023/07/29 03:04:23;;;;;;;15.43;10.32;;;;;;;13.59;100.00;100106.78;4932821;29;20516;-63
2023/07/29 03:06:49;;;;;;;15.93;10.23;;;;;;;13.55;100.00;100103.66;4933078;29;20075;-63
2023/07/29 03:09:16;;;;;;;13.35;10.70;;;;;;;13.53;100.00;100115.69;4932899;29;20048;-63
2023/07/29 03:11:42;;;;;;;16.13;10.35;;;;;;;13.54;100.00;100109.25;4933607;29;20051;-64
2023/07/29 03:14:09;;;;;;;12.52;10.70;;;;;;;13.57;100.00;100100.78;4933001;29;20047;-63
2023/07/29 03:16:35;;;;;;;13.50;9.75;;;;;;;13.63;100.00;100108.09;4932898;29;20111;-63
2023/07/29 03:19:02;;;;;;;13.50;10.38;;;;;;;13.58;100.00;100100.56;4932739;29;20060;-63
2023/07/29 03:21:29;;;;;;;12.02;10.05;;;;;;;13.56;100.00;100107.19;4932928;29;20067;-62
2023/07/29 03:23:55;;;;;;;14.20;10.20;;;;;;;13.54;100.00;100106.56;4933005;29;20103;-63
2023/07/29 03:26:22;;;;;;;11.55;10.23;;;;;;;13.55;100.00;100094.75;4932806;29;20048;-63
2023/07/29 03:28:48;;;;;;;13.38;10.35;;;;;;;13.53;100.00;100097.66;4915706;29;20052;-62
2023/07/29 03:31:15;;;;;;;14.73;10.52;;;;;;;13.52;100.00;100095.13;4932626;29;20048;-63
2023/07/29 03:33:42;;;;;;;11.10;10.00;;;;;;;13.52;100.00;100098.66;4933187;29;20058;-63
2023/07/29 03:36:08;;;;;;;14.18;10.13;;;;;;;13.52;100.00;100092.44;4932624;29;20087;-62
2023/07/29 03:38:39;;;;;;;12.52;9.52;;;;;;;13.52;100.00;100100.53;4932579;29;20056;-63
2023/07/29 03:41:08;;;;;;;15.85;10.27;;;;;;;13.52;100.00;100103.22;4932682;29;20043;-62
2023/07/29 03:43:35;;;;;;;13.40;10.13;;;;;;;13.50;100.00;100105.28;4932912;29;20082;-63
2023/07/29 03:46:01;;;;;;;12.18;10.00;;;;;;;13.48;100.00;100093.84;4932701;29;20102;-63
2023/07/29 03:48:28;;;;;;;14.40;10.23;;;;;;;13.46;100.00;100085.97;4932668;29;20091;-63
2023/07/29 03:50:55;;;;;;;13.25;10.40;;;;;;;13.43;100.00;100097.16;4932768;29;20047;-62
2023/07/29 03:53:21;;;;;;;11.95;10.10;;;;;;;13.48;100.00;100100.06;4932685;29;20074;-63
2023/07/29 03:55:50;;;;;;;15.02;10.77;;;;;;;13.40;100.00;100094.00;4932749;29;20103;-63
2023/07/29 03:58:18;;;;;;;12.57;10.30;;;;;;;13.41;100.00;100090.28;4932538;29;20055;-62
2023/07/29 04:00:44;;;;;;;13.82;9.95;;;;;;;13.40;100.00;100092.13;4932573;29;20055;-61
2023/07/29 04:03:11;;;;;;;11.75;10.15;;;;;;;13.43;100.00;100090.94;4935095;29;20132;-63
2023/07/29 04:05:37;;;;;;;18.15;10.25;;;;;;;13.44;100.00;100089.88;4936172;29;20123;-63
2023/07/29 04:08:04;;;;;;;16.13;10.18;;;;;;;13.47;100.00;100081.41;4935771;29;20099;-62
2023/07/29 04:10:31;;;;;;;14.07;11.10;;;;;;;13.51;100.00;100077.31;4935409;29;20107;-63
2023/07/29 04:12:58;;;;;;;14.48;10.45;;;;;;;13.57;100.00;100084.63;4935916;29;20519;-63
2023/07/29 04:15:24;;;;;;;12.27;10.23;;;;;;;13.57;100.00;100081.91;4935729;29;20103;-64
2023/07/29 04:17:51;;;;;;;11.73;9.55;;;;;;;13.60;100.00;100084.22;4935605;29;20051;-63
2023/07/29 04:20:17;;;;;;;11.85;9.80;;;;;;;13.67;100.00;100076.19;4935788;29;20364;-62
2023/07/29 04:22:44;;;;;;;12.95;10.45;;;;;;;13.67;100.00;100070.81;4936135;29;20103;-63
2023/07/29 04:25:13;;;;;;;15.95;10.38;;;;;;;13.72;100.00;100074.56;4935466;29;20107;-64
2023/07/29 04:27:39;;;;;;;13.48;10.38;;;;;;;13.77;100.00;100082.09;4935355;29;20055;-63
2023/07/29 04:30:06;;;;;;;13.93;9.77;;;;;;;13.78;100.00;100079.19;4935216;29;20047;-63
2023/07/29 04:32:33;;;;;;;10.07;9.07;;;;;;;13.81;100.00;100084.19;4935253;29;20059;-63
2023/07/29 04:35:01;;;;;;;13.07;10.10;;;;;;;13.81;100.00;100086.91;4935602;29;20051;-63
2023/07/29 04:37:27;;;;;;;11.73;9.57;;;;;;;13.82;100.00;100091.25;4935209;29;20551;-63
2023/07/29 04:39:55;;;;;;;13.40;9.73;;;;;;;13.82;100.00;100093.13;4935679;29;20048;-64
2023/07/29 04:42:21;;;;;;;12.65;10.05;;;;;;;13.83;100.00;100094.78;4935264;29;20467;-63
2023/07/29 04:44:48;;;;;;;13.90;10.18;;;;;;;13.82;100.00;100091.25;4935282;29;20095;-63
2023/07/29 04:47:14;;;;;;;14.25;9.45;;;;;;;13.85;100.00;100094.59;4935272;29;20047;-62
2023/07/29 04:49:41;;;;;;;11.65;9.23;;;;;;;13.93;100.00;100092.56;4935675;29;20050;-63
2023/07/29 04:52:08;;;;;;;13.07;10.73;;;;;;;13.96;100.00;100086.78;4935178;29;20074;-63
2023/07/29 04:54:34;;;;;;;12.30;9.77;;;;;;;14.02;100.00;100086.00;4935044;29;20092;-62
2023/07/29 04:57:01;;;;;;;12.95;10.30;;;;;;;14.08;100.00;100088.91;4934957;29;20103;-62
2023/07/29 04:59:27;;;;;;;10.05;9.05;;;;;;;14.09;100.00;100091.44;4934781;29;20468;-63
2023/07/29 05:01:54;;;;;;;12.77;9.70;;;;;;;14.05;100.00;100100.94;4934837;29;20111;-62
2023/07/29 05:04:21;;;;;;;11.73;9.77;;;;;;;14.07;100.00;100096.16;4934685;29;20055;-62
2023/07/29 05:06:50;;;;;;;12.70;9.13;;;;;;;14.03;100.00;100092.22;4935125;29;20499;-62
2023/07/29 05:09:18;;;;;;;14.98;9.55;;;;;;;14.04;100.00;100096.56;4934621;29;20051;-63
2023/07/29 05:11:45;;;;;;;13.95;9.68;;;;;;;14.16;100.00;100097.69;4934606;29;20415;-61
2023/07/29 05:14:17;;;;;;;11.32;9.65;;;;;;;14.26;100.00;100086.53;4933902;29;20051;-63
2023/07/29 05:16:44;;;;;;;12.05;9.35;;;;;;;14.39;100.00;100083.06;4934934;29;20126;-63
2023/07/29 05:19:11;;;;;;;11.20;9.35;;;;;;;14.47;100.00;100085.59;4934769;29;20039;-62
2023/07/29 05:21:39;;;;;;;10.18;9.18;;;;;;;14.62;100.00;100083.56;4934746;29;20059;-63
2023/07/29 05:24:05;;;;;;;13.80;9.00;;;;;;;14.60;100.00;100091.06;4934538;29;20063;-63
2023/07/29 05:26:32;;;;;;;11.48;8.48;;;;;;;14.75;100.00;100080.13;4934430;29;20095;-63
2023/07/29 05:28:59;;;;;;;12.30;8.55;;;;;;;14.70;100.00;100096.91;4933965;29;20060;-63
2023/07/29 05:31:26;;;;;;;9.85;8.52;;;;;;;14.70;100.00;100099.59;4934228;29;20107;-64
2023/07/29 05:33:52;;;;;;;8.75;7.68;;;;;;;14.68;100.00;100104.38;4934193;29;20107;-63
2023/07/29 05:36:19;;;;;;;10.77;8.75;;;;;;;14.77;100.00;100099.63;4934097;29;20048;-63
2023/07/29 05:38:45;;;;;;;11.23;7.97;;;;;;;14.82;100.00;100109.84;4934143;29;20056;-63
2023/07/29 05:41:12;;;;;;;8.90;7.93;;;;;;;14.90;100.00;100104.25;4934468;29;20476;-63
2023/07/29 05:43:38;;;;;;;9.13;8.23;;;;;;;15.01;100.00;100106.34;4934046;29;20064;-63
2023/07/29 05:46:05;;;;;;;8.88;7.38;;;;;;;15.00;100.00;100108.22;4934102;29;20111;-63
2023/07/29 05:48:32;;;;;;;10.00;7.50;;;;;;;15.05;100.00;100104.06;4917201;29;20047;-63
2023/07/29 05:50:59;;;;;;;8.27;7.35;;;;;;;15.26;100.00;100098.50;4933840;29;20087;-64
2023/07/29 05:53:25;;;;;;;9.45;7.07;;;;;;;15.36;100.00;100098.94;4933855;29;20099;-63
2023/07/29 05:55:52;;;;;;;9.52;7.30;;;;;;;15.44;100.00;100098.72;4933956;29;20103;-63
2023/07/29 05:58:18;;;;;;;16.17;7.40;;;;;;;15.55;100.00;100097.28;4933859;29;20579;-63
2023/07/29 06:00:46;;;;;;;10.88;7.00;;;;;;;15.45;100.00;100094.97;4933806;29;20468;-63
2023/07/29 06:03:12;;;;;;;7.40;6.70;;;;;;;15.46;100.00;100083.13;4917461;29;20076;-63
2023/07/29 06:05:39;;;;;;;10.25;6.60;;;;;;;15.49;100.00;100081.88;4933820;29;20054;-64
2023/07/29 06:08:09;;;;;;;10.50;6.75;;;;;;;15.49;100.00;100082.69;4933505;29;20047;-63
2023/07/29 06:10:37;;;;;;;10.68;7.43;;;;;;;15.50;100.00;100075.44;4933793;29;20051;-62
2023/07/29 06:13:03;;;;;;;8.90;6.65;;;;;;;15.60;100.00;100075.84;4942659;28;20051;-63
2023/07/29 06:15:30;;;;;;;7.07;6.38;;;;;;;15.57;100.00;100076.28;4952644;28;20110;-63
2023/07/29 06:17:56;;;;;;;9.63;7.15;;;;;;;15.55;100.00;100070.22;4951432;28;20105;-62
2023/07/29 06:20:23;;;;;;;8.35;6.38;;;;;;;15.58;100.00;100074.41;4952598;28;20135;-64
2023/07/29 06:22:50;;;;;;;8.70;6.22;;;;;;;15.62;100.00;100068.34;4952578;28;20074;-64
2023/07/29 06:25:16;;;;;;;9.25;6.15;;;;;;;15.68;100.00;100070.25;4951049;28;20518;-63
2023/07/29 06:27:43;;;;;;;10.18;7.05;;;;;;;15.82;100.00;100076.47;4952747;28;20054;-63
2023/07/29 06:30:10;;;;;;;10.10;6.22;;;;;;;15.84;100.00;100079.78;4951755;28;20079;-64
2023/07/29 06:32:36;;;;;;;9.45;6.05;;;;;;;15.89;100.00;100081.88;4951913;28;20118;-64
2023/07/29 06:35:03;;;;;;;9.18;5.90;;;;;;;15.91;100.00;100093.31;4952242;28;20479;-63
2023/07/29 06:37:29;;;;;;;7.30;6.18;;;;;;;16.02;100.00;100091.81;4946563;28;20111;-64
2023/07/29 06:39:56;;;;;;;15.65;5.88;;;;;;;16.08;100.00;100093.69;4933523;29;20044;-63
2023/07/29 06:42:23;;;;;;;6.30;5.70;;;;;;;16.18;100.00;100100.31;4933232;29;20059;-63
2023/07/29 06:44:49;;;;;;;6.25;4.80;;;;;;;16.34;100.00;100101.75;4933145;29;20047;-63
2023/07/29 06:47:16;;;;;;;5.88;5.15;;;;;;;16.37;100.00;100101.31;4933086;29;20052;-61
2023/07/29 06:49:42;;;;;;;6.15;5.15;;;;;;;16.52;100.00;100109.22;4934062;29;20103;-63
2023/07/29 06:52:10;;;;;;;6.63;4.63;;;;;;;16.86;100.00;100116.13;4933200;29;20511;-63
2023/07/29 06:54:38;;;;;;;8.88;4.63;;;;;;;16.98;100.00;100104.59;4933231;29;20048;-63
2023/07/29 06:57:05;;;;;;;7.38;5.10;;;;;;;17.17;100.00;100114.50;4933491;29;20594;-62
2023/07/29 06:59:34;;;;;;;8.18;4.22;;;;;;;17.38;100.00;100120.66;4933174;29;20044;-63
2023/07/29 07:02:01;;;;;;;5.43;4.28;;;;;;;17.38;100.00;100135.03;4933372;29;20047;-63
2023/07/29 07:04:28;;;;;;;5.10;4.45;;;;;;;17.48;100.00;100129.97;4933165;29;20044;-64
2023/07/29 07:06:55;;;;;;;6.75;3.65;;;;;;;17.68;100.00;100128.97;4933236;29;20047;-63
2023/07/29 07:09:22;;;;;;;7.25;3.85;;;;;;;17.78;100.00;100134.72;4933187;29;20094;-63
2023/07/29 07:11:48;;;;;;;7.78;3.80;;;;;;;17.93;100.00;100137.09;4933145;29;20455;-63
2023/07/29 07:14:15;;;;;;;6.57;4.00;;;;;;;18.01;100.00;100139.53;4932838;29;20078;-63
2023/07/29 07:16:42;;;;;;;7.18;3.90;;;;;;;18.31;100.00;100131.53;4933508;29;20499;-64
2023/07/29 07:19:09;;;;;;;7.45;5.05;;;;;;;18.60;100.00;100134.53;4932259;29;20535;-63
2023/07/29 07:21:35;;;;;;;7.88;5.90;;;;;;;18.60;100.00;100132.66;4932793;29;20071;-64
2023/07/29 07:24:02;;;;;;;4.43;3.67;;;;;;;18.84;100.00;100138.22;4932513;29;20119;-64
2023/07/29 07:26:28;;;;;;;4.25;3.30;;;;;;;19.08;100.00;100137.28;4933086;29;20048;-63
2023/07/29 07:28:55;;;;;;;4.10;3.13;;;;;;;18.87;100.00;100132.31;4932667;29;20048;-64
2023/07/29 07:31:22;;;;;;;4.60;3.17;;;;;;;19.01;100.00;100140.09;4932807;29;20119;-61
2023/07/29 07:33:49;;;;;;;5.35;2.97;;;;;;;19.09;100.00;100141.66;4932865;29;20043;-63
2023/07/29 07:36:15;;;;;;;3.55;3.13;;;;;;;19.15;100.00;100139.91;4932730;29;20524;-62
2023/07/29 07:38:42;;;;;;;5.03;2.95;;;;;;;19.27;100.00;100127.16;4936469;29;20495;-63
2023/07/29 07:41:08;;;;;;;3.65;3.30;;;;;;;19.46;100.00;100128.75;4936310;29;20408;-63
2023/07/29 07:43:35;;;;;;;6.07;2.88;;;;;;;19.67;100.00;100126.53;4936000;29;20055;-64
2023/07/29 07:46:05;;;;;;;2.95;2.65;;;;;;;20.14;100.00;100116.53;4936502;29;20047;-64
2023/07/29 07:48:33;;;;;;;4.43;2.63;;;;;;;20.60;100.00;100124.88;4936394;29;20444;-62
2023/07/29 07:50:59;;;;;;;3.28;2.90;;;;;;;20.94;100.00;100120.38;4936564;29;20051;-64
2023/07/29 07:53:26;;;;;;;4.03;2.70;;;;;;;21.39;100.00;100111.41;4935841;29;20243;-64
2023/07/29 07:55:52;;;;;;;5.53;2.90;;;;;;;22.03;100.00;100111.88;4936088;29;20043;-63
2023/07/29 07:58:19;;;;;;;2.65;2.30;;;;;;;22.26;100.00;100115.50;4936025;29;20099;-63
2023/07/29 08:00:46;;;;;;;4.45;3.00;;;;;;;21.97;100.00;100120.25;4936038;29;20475;-62
2023/07/29 08:03:12;;;;;;;6.40;2.80;;;;;;;21.99;100.00;100109.91;4936454;29;20548;-62
2023/07/29 08:05:39;;;;;;;3.60;2.35;;;;;;;22.14;100.00;100106.56;4936030;29;20143;-64
2023/07/29 08:08:05;;;;;;;4.18;2.67;;;;;;;22.21;100.00;100108.03;4935990;29;20130;-63
2023/07/29 08:10:32;;;;;;;2.72;2.45;;;;;;;22.29;100.00;100114.97;4935893;29;20047;-63
2023/07/29 08:12:59;;;;;;;5.57;2.80;;;;;;;22.57;100.00;100116.75;4935971;29;20052;-63
2023/07/29 08:15:26;;;;;;;2.70;2.33;;;;;;;23.07;100.00;100110.19;4935534;29;20050;-63
2023/07/29 08:17:52;;;;;;;3.28;2.67;;;;;;;23.09;100.00;100112.66;4934436;29;20048;-64
2023/07/29 08:20:19;;;;;;;4.13;2.40;;;;;;;23.12;100.00;100113.00;4934030;29;20039;-63
2023/07/29 08:22:45;;;;;;;2.65;2.20;;;;;;;23.46;100.00;100104.53;4934508;29;20468;-61
2023/07/29 08:25:13;;;;;;;5.43;2.45;;;;;;;23.58;100.00;100105.19;4935503;29;20131;-63
2023/07/29 08:27:40;;;;;;;3.30;2.22;;;;;;;23.91;100.00;100103.25;4933987;29;20063;-63
2023/07/29 08:30:07;;;;;;;3.13;2.13;;;;;;;23.89;100.00;100105.47;4934361;29;20412;-63
2023/07/29 08:32:34;;;;;;;3.45;2.40;;;;;;;23.73;100.00;100099.81;4935020;29;20063;-64
2023/07/29 08:35:01;;;;;;;2.97;2.10;;;;;;;23.55;100.00;100083.81;4933882;29;20472;-63
2023/07/29 08:37:29;;;;;;;5.28;2.45;;;;;;;23.21;100.00;100095.03;4933727;29;20062;-64
2023/07/29 08:39:55;;;;;;;3.47;2.13;;;;;;;22.63;100.00;100088.38;4934049;29;20051;-63
2023/07/29 08:42:27;;;;;;;3.15;2.13;;;;;;;22.47;100.00;100087.38;4933744;29;20048;-63
2023/07/29 08:44:54;;;;;;;;;;;;;;;22.17;100.00;100090.50;4934322;29;20499;-64
2023/07/29 08:47:21;;;;;;;3.78;2.33;;;;;;;22.20;100.00;100083.72;4934900;29;19930;-63
2023/07/29 08:49:50;;;;;;;3.90;2.22;;;;;;;22.14;100.00;100084.72;4933890;29;20048;-62
2023/07/29 08:52:18;;;;;;;2.33;2.10;;;;;;;21.94;100.00;100075.16;4933738;29;20059;-61
2023/07/29 08:54:45;;;;;;;4.68;2.33;;;;;;;22.07;100.00;100080.25;4934150;29;20064;-63
2023/07/29 08:57:13;;;;;;;6.78;2.05;;;;;;;22.17;100.00;100079.56;4935165;29;20047;-63
2023/07/29 08:59:41;;;;;;;4.03;2.28;;;;;;;22.29;100.00;100076.69;4935110;29;20103;-63
2023/07/29 09:02:08;;;;;;;2.60;2.17;;;;;;;22.25;100.00;100086.50;4934895;29;20047;-63
2023/07/29 09:04:34;;;;;;;4.60;1.80;;;;;;;22.31;100.00;100074.56;4935133;29;20114;-63
2023/07/29 09:07:01;;;;;;;2.30;2.10;;;;;;;22.15;100.00;100073.56;4934839;29;20075;-64
2023/07/29 09:09:28;;;;;;;3.45;1.92;;;;;;;22.21;100.00;100072.50;4934672;29;20051;-64
2023/07/29 09:11:55;;;;;;;4.95;2.05;;;;;;;22.18;100.00;100075.75;4934140;29;20054;-63
2023/07/29 09:14:22;;;;;;;2.28;1.90;;;;;;;22.18;100.00;100075.75;4933370;29;20201;-63
2023/07/29 09:16:48;;;;;;;4.65;2.08;;;;;;;22.31;100.00;100072.66;4934459;29;20507;-63
2023/07/29 09:19:15;;;;;;;5.55;2.33;;;;;;;22.29;100.00;100063.03;4935110;29;20047;-64
2023/07/29 09:21:42;;;;;;;3.55;2.20;;;;;;;22.63;100.00;100061.03;4934997;29;20048;-63
2023/07/29 09:24:09;;;;;;;3.00;1.80;;;;;;;22.73;100.00;100057.59;4933782;29;20044;-63
2023/07/29 09:26:36;;;;;;;2.78;1.95;;;;;;;22.66;100.00;100060.50;4934632;29;20110;-64
2023/07/29 09:29:03;;;;;;;4.18;1.70;;;;;;;22.70;100.00;100047.16;4933110;29;20081;-62
2023/07/29 09:31:31;;;;;;;2.22;1.80;;;;;;;22.69;100.00;100054.53;4934135;29;20048;-65
2023/07/29 09:34:03;;;;;;;4.68;2.28;;;;;;;22.66;100.00;100054.22;4934071;29;20135;-65
2023/07/29 09:36:31;;;;;;;3.72;1.95;;;;;;;22.61;100.00;100052.28;4934411;29;20094;-64
2023/07/29 09:38:58;;;;;;;2.40;2.20;;;;;;;22.68;100.00;100041.97;4933619;29;20060;-64
2023/07/29 09:41:27;;;;;;;2.22;1.60;;;;;;;22.69;100.00;100037.31;4934443;29;20054;-63
2023/07/29 09:43:57;;;;;;;7.82;2.20;;;;;;;22.92;100.00;100036.19;4934401;29;20178;-65
2023/07/29 09:46:26;;;;;;;2.57;1.70;;;;;;;23.08;100.00;100040.69;4933459;29;20118;-63
2023/07/29 09:48:55;;;;;;;3.17;1.70;;;;;;;23.11;100.00;100039.34;4933207;29;20135;-64
2023/07/29 09:51:22;;;;;;;3.63;2.15;;;;;;;23.22;100.00;100036.47;4932633;29;20044;-65
2023/07/29 09:53:52;;;;;;;5.53;2.13;;;;;;;23.32;100.00;100037.63;4933980;29;20103;-64
2023/07/29 09:56:26;;;;;;;4.03;2.72;;;;;;;23.25;100.00;100029.66;4933996;29;20052;-63
2023/07/29 09:58:56;;;;;;;3.70;1.70;;;;;;;23.21;100.00;100023.88;4933654;29;20472;-63
2023/07/29 10:01:24;;;;;;;1.90;1.70;;;;;;;23.04;100.00;100025.88;4933154;29;20130;-64
2023/07/29 10:03:51;;;;;;;2.50;1.48;;;;;;;22.84;100.00;100020.22;4932959;29;20063;-63
2023/07/29 10:06:19;;;;;;;1.95;1.40;;;;;;;22.65;100.00;100020.59;4933749;29;20051;-64
2023/07/29 10:08:49;;;;;;;4.35;2.00;;;;;;;22.69;100.00;100009.97;4933833;29;20051;-63
2023/07/29 10:11:20;;;;;;;5.13;2.00;;;;;;;22.58;100.00;100008.22;4933924;29;20071;-63
2023/07/29 10:13:48;;;;;;;3.97;2.20;;;;;;;22.62;100.00;100006.63;4933876;29;20039;-63
2023/07/29 10:16:30;;;;;;;5.47;2.05;;;;;;;22.66;100.00;100000.38;4933396;29;20050;-64
2023/07/29 10:18:58;;;;;;;2.30;1.60;;;;;;;22.24;100.00;100002.88;4933724;29;20055;-64
2023/07/29 10:21:24;;;;;;;1.98;1.73;;;;;;;22.07;100.00;99998.31;4933807;29;20508;-65
2023/07/29 10:23:57;;;;;;;3.33;1.85;;;;;;;22.15;100.00;99997.06;4933657;29;20563;-63
2023/07/29 10:26:25;;;;;;;5.78;1.70;;;;;;;22.14;100.00;99987.19;4933635;29;20075;-64
2023/07/29 10:28:56;;;;;;;2.80;1.80;;;;;;;21.93;100.00;99988.84;4932446;29;20044;-65
2023/07/29 10:31:23;;;;;;;1.92;1.63;;;;;;;21.87;100.00;99983.56;4933144;29;20051;-64
2023/07/29 10:33:50;;;;;;;2.05;1.48;;;;;;;21.78;100.00;99991.34;4933267;29;20098;-64
2023/07/29 10:36:18;;;;;;;6.88;2.35;;;;;;;21.82;100.00;99989.78;4933004;29;20070;-64
2023/07/29 10:38:49;;;;;;;2.60;2.00;;;;;;;21.80;100.00;99986.47;4932727;29;20051;-63
2023/07/29 10:41:16;;;;;;;5.30;1.88;;;;;;;21.92;100.00;99979.00;4933367;29;20078;-64
2023/07/29 10:43:43;;;;;;;3.63;1.70;;;;;;;22.12;100.00;99967.50;4932895;29;20496;-64
2023/07/29 10:46:23;;;;;;;2.45;1.92;;;;;;;22.16;100.00;99949.53;4931474;29;20102;-64
2023/07/29 10:48:49;;;;;;;4.68;2.03;;;;;;;22.26;100.00;99946.91;4932860;29;20053;-64
2023/07/29 10:51:25;;;;;;;7.00;1.90;;;;;;;22.22;100.00;99947.66;4933322;29;20051;-62
2023/07/29 10:53:56;;;;;;;6.78;1.80;;;;;;;22.08;100.00;99953.53;4933332;29;20130;-63
2023/07/29 10:56:33;;;;;;;2.35;1.60;;;;;;;21.67;100.00;99949.44;4932499;29;20071;-64
2023/07/29 10:59:17;;;;;;;2.25;1.52;;;;;;;21.54;100.00;99971.63;4933101;29;20433;-64
2023/07/29 11:02:00;;;;;;;2.08;1.80;;;;;;;21.24;100.00;99989.19;4932872;29;20050;-64
2023/07/29 11:04:32;;;;;;;5.05;1.80;;;;;;;21.10;100.00;99998.75;4930196;29;20552;-64
2023/07/29 11:07:07;;;;;;;4.00;1.70;;;;;;;20.89;100.00;100003.84;4929899;29;20419;-64
2023/07/29 13:06:30;;;;;;;3.20;2.70;;;;;;;18.97;100.00;99942.34;4937684;28;20051;-64
2023/07/29 13:08:58;;;;;;;3.30;2.45;;;;;;;19.25;100.00;99952.53;4933699;29;20130;-65
2023/07/29 13:11:26;;;;;;;3.58;2.40;;;;;;;19.55;100.00;99965.16;4934875;29;20480;-63
2023/07/29 13:13:53;;;;;;;4.78;2.70;;;;;;;19.33;100.00;99967.66;4934958;29;20056;-64